createdAt,value
2019-03-09T00:00:20.522Z,101404.05
2019-03-09T00:00:29.582Z,101380.59
2019-03-09T00:01:29.996Z,101380.00
2019-03-09T00:02:31.952Z,101379.92
2019-03-09T00:03:32.111Z,101379.41
2019-03-09T00:04:32.583Z,101378.66
2019-03-09T00:05:33.251Z,101377.64
2019-03-09T00:06:33.647Z,101376.91
2019-03-09T00:07:32.632Z,101376.75
2019-03-09T00:08:33.867Z,101375.40
2019-03-09T00:09:33.960Z,101373.55
2019-03-09T00:10:34.309Z,101372.25
2019-03-09T00:11:34.548Z,101370.99
2019-03-09T00:12:34.913Z,101369.48
2019-03-09T00:13:35.050Z,101367.88
2019-03-09T00:14:35.992Z,101366.02
2019-03-09T00:15:36.072Z,101364.93
2019-03-09T00:16:36.352Z,101363.41
2019-03-09T00:17:36.486Z,101362.16
2019-03-09T00:18:36.825Z,101361.28
2019-03-09T00:19:36.444Z,101360.36
2019-03-09T00:20:37.608Z,101359.52
2019-03-09T00:21:38.152Z,101357.49
2019-03-09T00:22:38.674Z,101356.56
2019-03-09T00:23:39.004Z,101356.05
2019-03-09T00:24:39.428Z,101355.58
2019-03-09T00:25:40.113Z,101354.83
2019-03-09T00:26:40.418Z,101353.95
2019-03-09T00:27:40.930Z,101352.95
2019-03-09T00:28:40.098Z,101351.03
2019-03-09T00:29:41.471Z,101349.27
2019-03-09T00:30:42.301Z,101347.05
2019-03-09T00:31:42.795Z,101345.67
2019-03-09T00:32:43.631Z,101344.21
2019-03-09T00:33:43.883Z,101342.20
2019-03-09T00:34:44.230Z,101341.41
2019-03-09T00:35:44.857Z,101340.12
2019-03-09T00:36:45.093Z,101338.60
2019-03-09T00:37:44.483Z,101338.57
2019-03-09T00:38:45.641Z,101337.64
2019-03-09T00:39:45.997Z,101335.54
2019-03-09T00:40:46.263Z,101335.01
2019-03-09T00:41:46.501Z,101333.29
2019-03-09T00:42:46.957Z,101332.48
2019-03-09T00:43:47.249Z,101330.44
2019-03-09T00:44:47.829Z,101329.67
2019-03-09T00:45:48.341Z,101328.75
2019-03-09T00:46:47.889Z,101327.48
2019-03-09T00:47:49.589Z,101326.81
2019-03-09T00:47:58.172Z,101316.77
2019-03-09T00:48:59.732Z,101309.88
2019-03-09T00:50:00.352Z,101309.99
2019-03-09T00:51:00.781Z,101309.32
2019-03-09T00:52:01.639Z,101309.03
2019-03-09T00:53:02.305Z,101307.09
2019-03-09T00:54:02.425Z,101306.55
2019-03-09T00:55:02.978Z,101305.62
2019-03-09T00:56:03.355Z,101304.83
2019-03-09T00:57:03.829Z,101303.48
2019-03-09T00:58:04.534Z,101302.72
2019-03-09T00:59:05.420Z,101302.30
2019-03-09T01:00:05.828Z,101301.63
2019-03-09T01:01:06.189Z,101300.20
2019-03-09T01:02:06.684Z,101299.11
2019-03-09T01:03:07.170Z,101296.91
2019-03-09T01:04:07.624Z,101294.39
2019-03-09T01:05:08.028Z,101290.43
2019-03-09T01:06:08.228Z,101288.23
2019-03-09T01:07:08.505Z,101287.11
2019-03-09T01:08:08.919Z,101284.84
2019-03-09T01:09:09.439Z,101282.23
2019-03-09T01:10:10.115Z,101279.58
2019-03-09T01:11:10.867Z,101277.65
2019-03-09T01:12:11.324Z,101275.20
2019-03-09T01:13:10.801Z,101272.34
2019-03-09T01:14:11.937Z,101270.33
2019-03-09T01:15:12.299Z,101267.97
2019-03-09T01:16:12.537Z,101265.61
2019-03-09T01:17:13.177Z,101263.50
2019-03-09T01:18:13.492Z,101261.39
2019-03-09T01:19:13.801Z,101259.03
2019-03-09T01:20:13.908Z,101255.27
2019-03-09T01:21:14.016Z,101253.25
2019-03-09T01:22:14.513Z,101248.79
2019-03-09T01:23:15.037Z,101245.34
2019-03-09T01:24:15.140Z,101243.82
2019-03-09T01:25:15.256Z,101240.95
2019-03-09T01:26:16.081Z,101236.23
2019-03-09T01:27:16.985Z,101232.20
2019-03-09T01:28:17.169Z,101229.16
2019-03-09T01:29:17.348Z,101226.97
2019-03-09T01:30:18.305Z,101224.28
2019-03-09T01:30:27.965Z,101158.94
2019-03-09T01:31:29.270Z,101166.44
2019-03-09T01:32:30.170Z,101166.86
2019-03-09T01:33:30.562Z,101168.05
2019-03-09T01:34:30.877Z,101169.64
2019-03-09T01:35:31.254Z,101167.45
2019-03-09T01:36:31.348Z,101164.67
2019-03-09T01:37:31.781Z,101164.62
2019-03-09T01:38:32.245Z,101163.86
2019-03-09T01:39:32.782Z,101163.27
2019-03-09T01:40:33.628Z,101163.09
2019-03-09T01:41:34.412Z,101163.61
2019-03-09T01:42:34.825Z,101164.45
2019-03-09T01:43:35.573Z,101163.69
2019-03-09T01:44:36.374Z,101162.09
2019-03-09T01:45:37.096Z,101161.25
2019-03-09T01:46:37.473Z,101159.39
2019-03-09T01:47:38.214Z,101157.55
2019-03-09T01:48:38.386Z,101155.35
2019-03-09T01:49:39.117Z,101152.74
2019-03-09T01:50:39.755Z,101149.70
2019-03-09T01:51:40.226Z,101149.83
2019-03-09T01:52:41.176Z,101148.39
2019-03-09T01:53:41.555Z,101147.64
2019-03-09T01:54:41.667Z,101148.00
2019-03-09T01:55:41.813Z,101147.83
2019-03-09T01:56:42.282Z,101146.23
2019-03-09T01:57:43.140Z,101144.63
2019-03-09T01:58:43.809Z,101144.33
2019-03-09T01:59:44.275Z,101142.84
2019-03-09T02:00:44.911Z,101142.34
2019-03-09T02:01:46.040Z,101141.41
2019-03-09T02:02:45.130Z,101138.91
2019-03-09T02:03:45.290Z,101137.23
2019-03-09T02:04:45.859Z,101136.67
2019-03-09T02:05:45.955Z,101134.18
2019-03-09T02:06:46.452Z,101134.09
2019-03-09T02:07:46.124Z,101133.45
2019-03-09T02:08:47.558Z,101133.78
2019-03-09T02:09:47.904Z,101129.86
2019-03-09T02:10:48.092Z,101128.84
2019-03-09T02:11:48.791Z,101128.37
2019-03-09T02:12:49.179Z,101127.31
2019-03-09T02:13:49.259Z,101127.14
2019-03-09T02:13:57.778Z,101116.48
2019-03-09T02:14:59.039Z,101115.89
2019-03-09T02:15:59.888Z,101115.05
2019-03-09T02:17:00.386Z,101114.63
2019-03-09T02:18:00.677Z,101114.75
2019-03-09T02:19:00.679Z,101115.42
2019-03-09T02:20:00.871Z,101114.16
2019-03-09T02:21:01.453Z,101113.94
2019-03-09T02:22:01.972Z,101113.18
2019-03-09T02:23:02.427Z,101112.00
2019-03-09T02:24:03.068Z,101112.11
2019-03-09T02:25:03.357Z,101111.44
2019-03-09T02:26:03.467Z,101110.55
2019-03-09T02:27:03.465Z,101111.75
2019-03-09T02:28:03.653Z,101111.50
2019-03-09T02:29:04.065Z,101111.78
2019-03-09T02:30:04.062Z,101111.48
2019-03-09T02:31:04.352Z,101113.02
2019-03-09T02:32:05.082Z,101113.51
2019-03-09T02:33:05.166Z,101113.45
2019-03-09T02:34:05.268Z,101114.07
2019-03-09T02:35:05.507Z,101114.89
2019-03-09T02:36:05.712Z,101114.61
2019-03-09T02:37:06.172Z,101114.25
2019-03-09T02:38:06.708Z,101114.31
2019-03-09T02:39:06.765Z,101114.80
2019-03-09T02:40:07.301Z,101115.02
2019-03-09T02:41:08.009Z,101114.83
2019-03-09T02:42:08.639Z,101114.64
2019-03-09T02:43:09.535Z,101113.19
2019-03-09T02:44:10.314Z,101113.66
2019-03-09T02:45:10.564Z,101113.81
2019-03-09T02:46:10.853Z,101112.94
2019-03-09T02:47:11.692Z,101111.14
2019-03-09T02:48:11.905Z,101111.13
2019-03-09T02:49:12.255Z,101110.25
2019-03-09T02:50:13.244Z,101109.81
2019-03-09T02:51:13.730Z,101109.20
2019-03-09T02:52:14.637Z,101107.66
2019-03-09T02:53:15.425Z,101108.47
2019-03-09T02:54:15.687Z,101108.02
2019-03-09T02:55:16.262Z,101106.23
2019-03-09T02:56:17.066Z,101106.80
2019-03-09T02:56:25.663Z,101113.59
2019-03-09T02:57:26.875Z,101112.74
2019-03-09T02:58:27.746Z,101112.74
2019-03-09T02:59:28.494Z,101111.34
2019-03-09T03:00:28.839Z,101112.77
2019-03-09T03:01:28.127Z,101113.45
2019-03-09T03:02:29.885Z,101113.81
2019-03-09T03:03:29.291Z,101112.16
2019-03-09T03:04:30.569Z,101112.66
2019-03-09T03:05:31.357Z,101112.94
2019-03-09T03:06:31.886Z,101112.22
2019-03-09T03:07:32.369Z,101112.24
2019-03-09T03:08:32.705Z,101111.77
2019-03-09T03:09:33.369Z,101111.96
2019-03-09T03:10:33.935Z,101112.41
2019-03-09T03:11:37.299Z,101112.55
2019-03-09T03:12:34.426Z,101111.98
2019-03-09T03:13:36.364Z,101111.37
2019-03-09T03:14:36.685Z,101109.48
2019-03-09T03:15:37.204Z,101108.62
2019-03-09T03:16:37.352Z,101108.64
2019-03-09T03:17:37.877Z,101107.89
2019-03-09T03:18:38.421Z,101107.99
2019-03-09T03:19:39.060Z,101107.97
2019-03-09T03:20:39.457Z,101109.11
2019-03-09T03:21:39.833Z,101109.25
2019-03-09T03:22:40.526Z,101110.03
2019-03-09T03:23:41.057Z,101108.33
2019-03-09T03:24:41.155Z,101108.09
2019-03-09T03:25:41.569Z,101108.04
2019-03-09T03:26:41.988Z,101106.83
2019-03-09T03:27:42.406Z,101106.94
2019-03-09T03:28:42.650Z,101106.89
2019-03-09T03:29:43.504Z,101106.69
2019-03-09T03:30:44.011Z,101104.03
2019-03-09T03:31:44.873Z,101104.30
2019-03-09T03:32:45.410Z,101104.75
2019-03-09T03:33:46.002Z,101105.73
2019-03-09T03:34:46.425Z,101106.26
2019-03-09T03:35:47.320Z,101106.39
2019-03-09T03:36:47.455Z,101106.00
2019-03-09T03:37:47.904Z,101106.19
2019-03-09T03:38:48.902Z,101106.22
2019-03-09T03:39:49.671Z,101106.08
2019-03-09T03:40:50.313Z,101105.18
2019-03-09T03:41:50.885Z,101105.20
2019-03-09T03:42:51.779Z,101105.13
2019-03-09T03:43:01.320Z,101093.23
2019-03-09T03:44:02.620Z,101093.52
2019-03-09T03:45:02.627Z,101092.50
2019-03-09T03:46:03.496Z,101092.84
2019-03-09T03:47:04.043Z,101092.42
2019-03-09T03:48:04.869Z,101092.67
2019-03-09T03:49:05.455Z,101091.69
2019-03-09T03:50:05.829Z,101091.52
2019-03-09T03:51:05.878Z,101090.43
2019-03-09T03:52:05.972Z,101090.09
2019-03-09T03:53:06.477Z,101090.77
2019-03-09T03:54:07.190Z,101090.68
2019-03-09T03:55:07.976Z,101090.77
2019-03-09T03:56:08.510Z,101090.43
2019-03-09T03:57:09.236Z,101091.02
2019-03-09T03:58:10.083Z,101090.69
2019-03-09T03:59:10.155Z,101091.02
2019-03-09T04:00:09.193Z,101091.52
2019-03-09T04:01:10.435Z,101092.45
2019-03-09T04:02:11.345Z,101091.10
2019-03-09T04:03:11.808Z,101092.17
2019-03-09T04:04:12.256Z,101092.00
2019-03-09T04:05:12.666Z,101092.92
2019-03-09T04:06:13.150Z,101093.43
2019-03-09T04:07:13.904Z,101094.02
2019-03-09T04:08:14.460Z,101094.27
2019-03-09T04:09:15.154Z,101095.86
2019-03-09T04:10:15.904Z,101096.14
2019-03-09T04:11:15.886Z,101095.72
2019-03-09T04:12:16.451Z,101095.72
2019-03-09T04:13:17.284Z,101097.16
2019-03-09T04:14:18.087Z,101098.16
2019-03-09T04:15:18.458Z,101098.41
2019-03-09T04:16:18.976Z,101100.26
2019-03-09T04:17:19.318Z,101101.77
2019-03-09T04:18:19.930Z,101103.03
2019-03-09T04:19:19.929Z,101102.94
2019-03-09T04:20:20.877Z,101104.45
2019-03-09T04:21:20.541Z,101104.55
2019-03-09T04:22:21.944Z,101105.39
2019-03-09T04:23:21.970Z,101106.61
2019-03-09T04:24:22.666Z,101107.63
2019-03-09T04:25:22.968Z,101108.07
2019-03-09T04:26:23.167Z,101108.74
2019-03-09T04:27:23.851Z,101109.58
2019-03-09T04:28:23.901Z,101110.25
2019-03-09T04:28:35.400Z,101128.52
2019-03-09T04:29:35.887Z,101127.95
2019-03-09T04:30:37.709Z,101128.20
2019-03-09T04:31:37.794Z,101127.78
2019-03-09T04:32:38.532Z,101126.72
2019-03-09T04:33:39.032Z,101127.22
2019-03-09T04:34:39.311Z,101127.47
2019-03-09T04:35:39.854Z,101127.39
2019-03-09T04:36:40.118Z,101127.22
2019-03-09T04:37:40.567Z,101127.05
2019-03-09T04:38:40.821Z,101126.21
2019-03-09T04:39:41.125Z,101125.96
2019-03-09T04:40:41.425Z,101126.22
2019-03-09T04:41:41.673Z,101125.88
2019-03-09T04:42:41.827Z,101125.77
2019-03-09T04:43:42.224Z,101125.27
2019-03-09T04:44:42.455Z,101125.52
2019-03-09T04:45:42.757Z,101126.11
2019-03-09T04:46:43.200Z,101126.49
2019-03-09T04:47:43.348Z,101127.09
2019-03-09T04:48:43.501Z,101128.83
2019-03-09T04:49:44.111Z,101130.50
2019-03-09T04:50:44.426Z,101132.33
2019-03-09T04:51:44.542Z,101135.11
2019-03-09T04:52:45.061Z,101136.92
2019-03-09T04:53:46.033Z,101138.91
2019-03-09T04:54:46.037Z,101141.77
2019-03-09T04:55:46.063Z,101143.92
2019-03-09T04:56:46.134Z,101146.37
2019-03-09T04:57:46.177Z,101147.77
2019-03-09T04:58:47.028Z,101150.45
2019-03-09T04:59:47.009Z,101152.45
2019-03-09T05:00:47.115Z,101155.14
2019-03-09T05:01:47.339Z,101156.88
2019-03-09T05:02:47.748Z,101158.89
2019-03-09T05:03:47.867Z,101161.14
2019-03-09T05:04:47.148Z,101163.04
2019-03-09T05:05:48.610Z,101163.89
2019-03-09T05:06:48.735Z,101166.21
2019-03-09T05:07:49.101Z,101168.12
2019-03-09T05:08:49.629Z,101170.19
2019-03-09T05:09:50.051Z,101171.93
2019-03-09T05:10:50.234Z,101174.17
2019-03-09T05:11:50.556Z,101176.95
2019-03-09T05:12:50.670Z,101179.87
2019-03-09T05:13:51.189Z,101181.86
2019-03-09T05:13:59.750Z,101236.77
2019-03-09T05:15:00.963Z,101235.84
2019-03-09T05:16:01.468Z,101235.25
2019-03-09T05:17:02.435Z,101235.25
2019-03-09T05:18:02.464Z,101235.72
2019-03-09T05:19:03.244Z,101235.56
2019-03-09T05:20:03.301Z,101235.45
2019-03-09T05:21:03.504Z,101235.09
2019-03-09T05:22:04.229Z,101235.01
2019-03-09T05:23:04.586Z,101235.79
2019-03-09T05:24:04.836Z,101235.62
2019-03-09T05:25:05.440Z,101235.85
2019-03-09T05:26:06.016Z,101236.08
2019-03-09T05:27:06.595Z,101236.98
2019-03-09T05:28:07.072Z,101237.15
2019-03-09T05:29:07.759Z,101237.29
2019-03-09T05:30:08.346Z,101237.46
2019-03-09T05:31:09.123Z,101237.94
2019-03-09T05:32:09.949Z,101238.28
2019-03-09T05:33:10.528Z,101238.59
2019-03-09T05:34:11.274Z,101238.64
2019-03-09T05:35:11.464Z,101238.11
2019-03-09T05:36:12.460Z,101238.28
2019-03-09T05:37:12.883Z,101237.92
2019-03-09T05:38:13.054Z,101236.91
2019-03-09T05:39:13.490Z,101237.22
2019-03-09T05:40:13.997Z,101237.06
2019-03-09T05:41:14.511Z,101237.20
2019-03-09T05:42:14.378Z,101238.30
2019-03-09T05:43:16.189Z,101239.39
2019-03-09T05:44:16.718Z,101241.04
2019-03-09T05:45:17.276Z,101243.06
2019-03-09T05:46:18.019Z,101244.38
2019-03-09T05:47:18.190Z,101246.41
2019-03-09T05:48:18.909Z,101248.81
2019-03-09T05:49:19.572Z,101251.00
2019-03-09T05:50:20.134Z,101253.08
2019-03-09T05:51:20.658Z,101255.06
2019-03-09T05:52:21.013Z,101257.67
2019-03-09T05:53:20.134Z,101259.69
2019-03-09T05:54:22.030Z,101262.02
2019-03-09T05:55:22.357Z,101262.19
2019-03-09T05:56:22.732Z,101263.81
2019-03-09T05:57:23.277Z,101265.42
2019-03-09T05:57:31.830Z,101294.37
2019-03-09T05:58:33.678Z,101293.98
2019-03-09T05:59:33.904Z,101294.03
2019-03-09T06:00:34.390Z,101293.62
2019-03-09T06:01:34.864Z,101292.86
2019-03-09T06:02:35.143Z,101292.36
2019-03-09T06:03:35.320Z,101292.44
2019-03-09T06:04:35.843Z,101291.83
2019-03-09T06:05:36.422Z,101291.23
2019-03-09T06:06:36.752Z,101291.23
2019-03-09T06:07:36.945Z,101290.95
2019-03-09T06:08:37.283Z,101291.21
2019-03-09T06:09:37.497Z,101291.80
2019-03-09T06:10:37.581Z,101293.28
2019-03-09T06:11:38.035Z,101294.02
2019-03-09T06:12:38.088Z,101295.51
2019-03-09T06:13:38.328Z,101296.16
2019-03-09T06:14:38.518Z,101297.73
2019-03-09T06:15:39.114Z,101299.22
2019-03-09T06:16:39.311Z,101300.03
2019-03-09T06:17:39.782Z,101301.02
2019-03-09T06:18:40.566Z,101302.00
2019-03-09T06:19:40.918Z,101302.98
2019-03-09T06:20:41.481Z,101304.11
2019-03-09T06:21:42.147Z,101305.27
2019-03-09T06:22:42.836Z,101306.84
2019-03-09T06:23:43.741Z,101307.66
2019-03-09T06:24:44.538Z,101308.97
2019-03-09T06:25:45.074Z,101308.86
2019-03-09T06:26:45.012Z,101309.51
2019-03-09T06:27:46.812Z,101309.82
2019-03-09T06:28:47.214Z,101310.39
2019-03-09T06:29:48.037Z,101310.61
2019-03-09T06:30:48.109Z,101311.94
2019-03-09T06:31:48.675Z,101312.16
2019-03-09T06:32:49.248Z,101313.06
2019-03-09T06:33:49.491Z,101313.59
2019-03-09T06:34:50.286Z,101313.48
2019-03-09T06:35:50.761Z,101314.11
2019-03-09T06:36:51.072Z,101315.34
2019-03-09T06:37:51.105Z,101316.13
2019-03-09T06:38:51.395Z,101317.12
2019-03-09T06:39:52.161Z,101317.23
2019-03-09T06:40:52.525Z,101318.22
2019-03-09T06:41:53.365Z,101318.50
2019-03-09T06:42:01.946Z,101329.00
2019-03-09T06:43:03.225Z,101328.58
2019-03-09T06:44:03.456Z,101327.91
2019-03-09T06:45:03.596Z,101327.66
2019-03-09T06:46:04.163Z,101326.23
2019-03-09T06:47:04.744Z,101325.14
2019-03-09T06:48:05.431Z,101324.86
2019-03-09T06:49:06.062Z,101323.81
2019-03-09T06:50:06.467Z,101322.22
2019-03-09T06:51:06.882Z,101321.34
2019-03-09T06:52:07.510Z,101320.00
2019-03-09T06:53:08.025Z,101317.73
2019-03-09T06:54:08.542Z,101316.78
2019-03-09T06:55:08.557Z,101314.98
2019-03-09T06:56:08.773Z,101313.80
2019-03-09T06:57:13.863Z,101311.67
2019-03-09T06:59:08.760Z,101303.54
2019-03-09T07:01:48.884Z,101301.41
2019-03-09T07:02:50.340Z,101300.65
2019-03-09T07:03:50.623Z,101299.94
2019-03-09T07:04:50.808Z,101300.28
2019-03-09T07:05:51.279Z,101300.84
2019-03-09T07:06:51.431Z,101302.08
2019-03-09T07:07:51.779Z,101303.63
2019-03-09T07:08:52.779Z,101305.16
2019-03-09T07:09:53.009Z,101306.66
2019-03-09T07:10:53.738Z,101307.77
2019-03-09T07:11:53.933Z,101308.79
2019-03-09T07:12:54.749Z,101309.91
2019-03-09T07:13:55.268Z,101310.36
2019-03-09T07:14:55.491Z,101311.23
2019-03-09T07:15:56.125Z,101312.30
2019-03-09T07:16:56.122Z,101312.91
2019-03-09T07:17:56.235Z,101313.52
2019-03-09T07:18:56.381Z,101314.31
2019-03-09T07:19:56.580Z,101314.42
2019-03-09T07:20:56.799Z,101315.59
2019-03-09T07:21:56.992Z,101316.52
2019-03-09T07:22:57.155Z,101316.72
2019-03-09T07:23:57.986Z,101317.55
2019-03-09T07:24:58.384Z,101318.76
2019-03-09T07:25:58.668Z,101319.96
2019-03-09T07:26:58.972Z,101321.84
2019-03-09T07:27:59.499Z,101322.63
2019-03-09T07:28:59.617Z,101324.03
2019-03-09T07:29:59.610Z,101324.64
2019-03-09T07:31:00.236Z,101325.52
2019-03-09T07:32:00.920Z,101326.62
2019-03-09T07:33:01.173Z,101327.16
2019-03-09T07:34:01.706Z,101328.03
2019-03-09T07:35:02.195Z,101328.36
2019-03-09T07:36:02.843Z,101328.69
2019-03-09T07:37:02.949Z,101328.88
2019-03-09T07:38:03.270Z,101329.72
2019-03-09T07:39:03.782Z,101330.73
2019-03-09T07:40:04.226Z,101331.31
2019-03-09T07:41:04.949Z,101332.34
2019-03-09T07:42:05.877Z,101333.27
2019-03-09T07:43:06.454Z,101335.03
2019-03-09T07:44:06.632Z,101336.20
2019-03-09T07:44:15.709Z,101358.59
2019-03-09T07:45:17.042Z,101358.16
2019-03-09T07:46:17.888Z,101358.59
2019-03-09T07:47:18.711Z,101358.25
2019-03-09T07:48:19.087Z,101358.16
2019-03-09T07:49:19.683Z,101358.22
2019-03-09T07:50:20.172Z,101358.73
2019-03-09T07:51:20.540Z,101358.98
2019-03-09T07:52:21.108Z,101359.79
2019-03-09T07:53:21.692Z,101360.38
2019-03-09T07:54:21.892Z,101361.22
2019-03-09T07:55:22.133Z,101361.90
2019-03-09T07:56:22.970Z,101363.06
2019-03-09T07:57:23.019Z,101364.78
2019-03-09T07:58:23.598Z,101366.33
2019-03-09T07:59:23.690Z,101367.66
2019-03-09T08:00:24.099Z,101370.52
2019-03-09T08:01:24.338Z,101372.40
2019-03-09T08:02:23.637Z,101374.74
2019-03-09T08:03:24.758Z,101376.72
2019-03-09T08:04:24.874Z,101379.28
2019-03-09T08:05:24.173Z,101381.20
2019-03-09T08:06:25.697Z,101383.25
2019-03-09T08:07:26.209Z,101385.73
2019-03-09T08:08:26.439Z,101387.91
2019-03-09T08:09:26.871Z,101390.30
2019-03-09T08:10:27.557Z,101393.98
2019-03-09T08:11:27.957Z,101397.52
2019-03-09T08:12:28.921Z,101400.61
2019-03-09T08:13:29.636Z,101403.80
2019-03-09T08:14:29.866Z,101407.28
2019-03-09T08:15:30.689Z,101410.97
2019-03-09T08:16:35.724Z,101414.62
2019-03-09T08:17:30.880Z,101417.98
2019-03-09T08:18:32.316Z,101421.55
2019-03-09T08:19:33.324Z,101424.62
2019-03-09T08:20:33.453Z,101427.86
2019-03-09T08:21:32.966Z,101431.34
2019-03-09T08:22:34.624Z,101434.63
2019-03-09T08:23:35.602Z,101437.30
2019-03-09T08:24:35.605Z,101440.03
2019-03-09T08:25:36.359Z,101442.01
2019-03-09T08:26:36.590Z,101442.93
2019-03-09T08:27:37.480Z,101444.81
2019-03-09T08:28:38.203Z,101446.34
2019-03-09T08:29:38.875Z,101447.05
2019-03-09T08:30:39.173Z,101448.81
2019-03-09T08:31:38.502Z,101450.33
2019-03-09T08:31:50.021Z,101470.85
2019-03-09T08:32:51.505Z,101470.43
2019-03-09T08:33:52.236Z,101470.00
2019-03-09T08:34:52.555Z,101470.59
2019-03-09T08:35:52.723Z,101470.20
2019-03-09T08:36:53.504Z,101470.77
2019-03-09T08:37:53.927Z,101470.38
2019-03-09T08:38:54.547Z,101470.71
2019-03-09T08:39:54.634Z,101471.13
2019-03-09T08:40:55.254Z,101471.13
2019-03-09T08:41:55.465Z,101471.92
2019-03-09T08:42:55.521Z,101472.51
2019-03-09T08:43:56.352Z,101473.47
2019-03-09T08:44:57.095Z,101474.65
2019-03-09T08:45:57.977Z,101475.07
2019-03-09T08:46:58.577Z,101474.98
2019-03-09T08:47:59.245Z,101474.98
2019-03-09T08:49:00.117Z,101474.98
2019-03-09T08:49:59.146Z,101474.98
2019-03-09T08:51:00.357Z,101475.07
2019-03-09T08:52:00.842Z,101474.65
2019-03-09T08:53:01.215Z,101473.35
2019-03-09T08:54:02.166Z,101472.84
2019-03-09T08:55:02.357Z,101471.95
2019-03-09T08:56:02.405Z,101471.78
2019-03-09T08:57:01.918Z,101471.27
2019-03-09T08:58:03.468Z,101471.27
2019-03-09T08:59:03.742Z,101471.61
2019-03-09T09:00:03.020Z,101470.94
2019-03-09T09:01:04.410Z,101471.11
2019-03-09T09:02:05.355Z,101471.66
2019-03-09T09:03:05.812Z,101471.66
2019-03-09T09:04:06.495Z,101471.75
2019-03-09T09:05:07.281Z,101472.52
2019-03-09T09:06:07.497Z,101471.67
2019-03-09T09:07:07.919Z,101471.75
2019-03-09T09:08:08.319Z,101471.47
2019-03-09T09:09:08.913Z,101470.87
2019-03-09T09:10:09.437Z,101470.87
2019-03-09T09:11:10.053Z,101470.26
2019-03-09T09:12:10.807Z,101469.59
2019-03-09T09:13:11.433Z,101469.39
2019-03-09T09:14:12.092Z,101468.55
2019-03-09T09:15:14.743Z,101468.01
2019-03-09T09:16:11.522Z,101467.30
2019-03-09T09:17:12.949Z,101467.11
2019-03-09T09:17:21.568Z,101466.41
2019-03-09T09:18:21.915Z,101466.41
2019-03-09T09:19:23.701Z,101466.16
2019-03-09T09:20:24.003Z,101465.06
2019-03-09T09:21:24.002Z,101464.19
2019-03-09T09:22:25.591Z,101462.72
2019-03-09T09:23:25.878Z,101461.38
2019-03-09T09:24:26.452Z,101461.25
2019-03-09T09:25:26.679Z,101460.89
2019-03-09T09:26:26.772Z,101460.34
2019-03-09T09:27:27.623Z,101459.98
2019-03-09T09:28:28.086Z,101460.45
2019-03-09T09:29:28.645Z,101460.42
2019-03-09T09:30:28.948Z,101460.79
2019-03-09T09:31:29.313Z,101461.34
2019-03-09T09:32:29.649Z,101461.06
2019-03-09T09:33:29.987Z,101462.64
2019-03-09T09:34:30.224Z,101462.61
2019-03-09T09:35:30.654Z,101462.83
2019-03-09T09:36:31.341Z,101463.11
2019-03-09T09:37:31.886Z,101463.78
2019-03-09T09:38:32.259Z,101465.19
2019-03-09T09:39:32.756Z,101465.27
2019-03-09T09:40:33.622Z,101465.74
2019-03-09T09:41:32.897Z,101466.59
2019-03-09T09:42:34.631Z,101468.08
2019-03-09T09:43:35.031Z,101469.17
2019-03-09T09:44:35.550Z,101470.49
2019-03-09T09:45:36.139Z,101471.59
2019-03-09T09:46:36.551Z,101472.95
2019-03-09T09:47:37.005Z,101473.75
2019-03-09T09:48:37.135Z,101474.17
2019-03-09T09:49:37.373Z,101474.43
2019-03-09T09:50:37.758Z,101474.48
2019-03-09T09:51:37.857Z,101474.66
2019-03-09T09:52:38.499Z,101473.73
2019-03-09T09:53:39.134Z,101473.95
2019-03-09T09:54:39.342Z,101474.12
2019-03-09T09:55:39.684Z,101473.30
2019-03-09T09:56:40.400Z,101472.72
2019-03-09T09:57:40.108Z,101472.52
2019-03-09T09:58:40.280Z,101471.97
2019-03-09T09:59:40.770Z,101470.38
2019-03-09T10:00:40.991Z,101469.95
2019-03-09T10:01:41.056Z,101469.50
2019-03-09T10:02:41.201Z,101468.66
2019-03-09T10:03:41.529Z,101468.11
2019-03-09T10:04:42.041Z,101466.77
2019-03-09T10:05:43.029Z,101466.06
2019-03-09T10:06:43.100Z,101465.19
2019-03-09T10:07:43.527Z,101463.92
2019-03-09T10:08:43.368Z,101463.08
2019-03-09T10:09:43.789Z,101462.62
2019-03-09T10:10:44.568Z,101461.52
2019-03-09T10:11:44.666Z,101460.31
2019-03-09T10:12:46.449Z,101458.76
2019-03-09T10:13:45.803Z,101457.41
2019-03-09T10:14:46.990Z,101455.64
2019-03-09T10:14:55.531Z,101425.56
2019-03-09T10:15:56.814Z,101424.89
2019-03-09T10:16:56.635Z,101424.72
2019-03-09T10:17:57.420Z,101424.64
2019-03-09T10:18:58.287Z,101424.89
2019-03-09T10:19:58.616Z,101424.30
2019-03-09T10:20:59.111Z,101423.63
2019-03-09T10:21:59.495Z,101424.38
2019-03-09T10:23:04.322Z,101424.69
2019-03-09T10:24:00.433Z,101424.44
2019-03-09T10:25:01.009Z,101424.52
2019-03-09T10:26:00.879Z,101423.30
2019-03-09T10:27:01.568Z,101422.52
2019-03-09T10:28:02.015Z,101422.01
2019-03-09T10:29:02.335Z,101420.80
2019-03-09T10:30:03.258Z,101420.25
2019-03-09T10:31:03.846Z,101419.80
2019-03-09T10:32:04.380Z,101419.20
2019-03-09T10:33:04.730Z,101418.75
2019-03-09T10:34:07.028Z,101417.20
2019-03-09T10:35:06.959Z,101416.50
2019-03-09T10:36:06.077Z,101415.62
2019-03-09T10:37:06.662Z,101414.41
2019-03-09T10:38:06.977Z,101413.52
2019-03-09T10:39:07.825Z,101412.73
2019-03-09T10:40:08.377Z,101412.95
2019-03-09T10:41:08.954Z,101412.41
2019-03-09T10:42:10.582Z,101411.42
2019-03-09T10:43:09.949Z,101410.33
2019-03-09T10:44:10.821Z,101409.61
2019-03-09T10:45:11.182Z,101408.73
2019-03-09T10:46:11.619Z,101405.61
2019-03-09T10:47:12.169Z,101404.56
2019-03-09T10:48:12.924Z,101403.27
2019-03-09T10:49:13.485Z,101401.97
2019-03-09T10:50:13.991Z,101400.89
2019-03-09T10:51:14.777Z,101399.76
2019-03-09T10:52:15.066Z,101398.25
2019-03-09T10:53:16.735Z,101397.13
2019-03-09T10:54:17.330Z,101395.53
2019-03-09T10:55:16.670Z,101394.66
2019-03-09T10:56:17.427Z,101394.34
2019-03-09T10:57:17.591Z,101394.39
2019-03-09T10:58:17.885Z,101393.25
2019-03-09T10:59:18.820Z,101393.39
2019-03-09T11:00:19.508Z,101393.36
2019-03-09T11:01:20.273Z,101393.97
2019-03-09T11:02:20.713Z,101394.52
2019-03-09T11:03:21.352Z,101394.15
2019-03-09T11:04:27.487Z,101394.79
2019-03-09T11:05:22.419Z,101394.92
2019-03-09T11:06:22.902Z,101396.08
2019-03-09T11:07:23.201Z,101397.05
2019-03-09T11:08:23.863Z,101397.58
2019-03-09T11:09:23.900Z,101398.89
2019-03-09T11:10:24.800Z,101399.70
2019-03-09T11:11:25.089Z,101400.52
2019-03-09T11:12:25.800Z,101401.83
2019-03-09T11:13:25.988Z,101403.06
2019-03-09T11:14:27.470Z,101403.74
2019-03-09T11:15:28.035Z,101404.47
2019-03-09T11:16:27.690Z,101404.86
2019-03-09T11:17:31.385Z,101405.20
2019-03-09T11:18:29.114Z,101405.33
2019-03-09T11:19:29.158Z,101405.97
2019-03-09T11:20:29.974Z,101405.85